sensor_id;sensor_type;location;lat;lon;timestamp;temperature;humidity
36652;DHT22;53334;51.976;20.144;2022-08-19T00:00:31;26.40;60.80
36652;DHT22;53334;51.976;20.144;2022-08-19T00:03:05;26.40;60.80
36652;DHT22;53334;51.976;20.144;2022-08-19T00:05:40;26.40;61.00
36652;DHT22;53334;51.976;20.144;2022-08-19T00:08:14;26.50;61.20
36652;DHT22;53334;51.976;20.144;2022-08-19T00:10:49;26.40;61.20
36652;DHT22;53334;51.976;20.144;2022-08-19T00:13:23;26.50;61.30
36652;DHT22;53334;51.976;20.144;2022-08-19T00:15:58;26.40;61.30
36652;DHT22;53334;51.976;20.144;2022-08-19T00:18:33;26.40;61.30
36652;DHT22;53334;51.976;20.144;2022-08-19T00:21:08;26.50;61.50
36652;DHT22;53334;51.976;20.144;2022-08-19T00:23:42;26.50;61.50
36652;DHT22;53334;51.976;20.144;2022-08-19T00:26:16;26.50;61.60
36652;DHT22;53334;51.976;20.144;2022-08-19T00:28:50;26.50;61.40
36652;DHT22;53334;51.976;20.144;2022-08-19T00:31:26;26.50;61.30
36652;DHT22;53334;51.976;20.144;2022-08-19T00:34:00;26.50;61.20
36652;DHT22;53334;51.976;20.144;2022-08-19T00:36:35;26.50;61.10
36652;DHT22;53334;51.976;20.144;2022-08-19T00:39:10;26.50;61.30
36652;DHT22;53334;51.976;20.144;2022-08-19T00:41:45;26.50;61.20
36652;DHT22;53334;51.976;20.144;2022-08-19T00:44:22;26.50;61.20
36652;DHT22;53334;51.976;20.144;2022-08-19T00:47:00;26.50;61.10
36652;DHT22;53334;51.976;20.144;2022-08-19T00:49:37;26.50;61.10
36652;DHT22;53334;51.976;20.144;2022-08-19T00:52:15;26.50;61.20
36652;DHT22;53334;51.976;20.144;2022-08-19T00:54:50;26.50;61.20
36652;DHT22;53334;51.976;20.144;2022-08-19T00:57:28;26.50;61.30
36652;DHT22;53334;51.976;20.144;2022-08-19T01:00:07;26.50;61.40
36652;DHT22;53334;51.976;20.144;2022-08-19T01:02:44;26.50;61.50
36652;DHT22;53334;51.976;20.144;2022-08-19T01:05:21;26.50;61.40
36652;DHT22;53334;51.976;20.144;2022-08-19T01:07:56;26.50;61.40
36652;DHT22;53334;51.976;20.144;2022-08-19T01:10:33;26.50;62.10
36652;DHT22;53334;51.976;20.144;2022-08-19T01:13:10;26.50;61.60
36652;DHT22;53334;51.976;20.144;2022-08-19T01:15:48;26.50;61.50
36652;DHT22;53334;51.976;20.144;2022-08-19T01:18:26;26.50;61.30
36652;DHT22;53334;51.976;20.144;2022-08-19T01:21:05;26.50;61.20
36652;DHT22;53334;51.976;20.144;2022-08-19T01:23:42;26.50;61.20
36652;DHT22;53334;51.976;20.144;2022-08-19T01:26:19;26.50;61.20
36652;DHT22;53334;51.976;20.144;2022-08-19T01:28:56;26.50;61.20
36652;DHT22;53334;51.976;20.144;2022-08-19T01:31:32;26.50;61.10
36652;DHT22;53334;51.976;20.144;2022-08-19T01:34:07;26.50;61.10
36652;DHT22;53334;51.976;20.144;2022-08-19T01:36:44;26.50;61.10
36652;DHT22;53334;51.976;20.144;2022-08-19T01:39:23;26.50;61.10
36652;DHT22;53334;51.976;20.144;2022-08-19T01:41:57;26.60;61.10
36652;DHT22;53334;51.976;20.144;2022-08-19T01:44:35;26.50;61.00
36652;DHT22;53334;51.976;20.144;2022-08-19T01:47:10;26.50;61.10
36652;DHT22;53334;51.976;20.144;2022-08-19T01:49:44;26.50;61.10
36652;DHT22;53334;51.976;20.144;2022-08-19T01:52:18;26.50;61.10
36652;DHT22;53334;51.976;20.144;2022-08-19T01:54:54;26.50;61.10
36652;DHT22;53334;51.976;20.144;2022-08-19T01:57:28;26.60;61.20
36652;DHT22;53334;51.976;20.144;2022-08-19T02:00:05;26.50;61.20
36652;DHT22;53334;51.976;20.144;2022-08-19T02:02:42;26.60;61.30
36652;DHT22;53334;51.976;20.144;2022-08-19T02:05:17;26.50;61.20
36652;DHT22;53334;51.976;20.144;2022-08-19T02:07:53;26.50;61.30
36652;DHT22;53334;51.976;20.144;2022-08-19T02:10:29;26.60;61.20
36652;DHT22;53334;51.976;20.144;2022-08-19T02:13:03;26.50;61.20
36652;DHT22;53334;51.976;20.144;2022-08-19T02:15:37;26.60;61.30
36652;DHT22;53334;51.976;20.144;2022-08-19T02:18:12;26.60;61.30
36652;DHT22;53334;51.976;20.144;2022-08-19T02:20:46;26.60;61.30
36652;DHT22;53334;51.976;20.144;2022-08-19T02:23:20;26.60;61.20
36652;DHT22;53334;51.976;20.144;2022-08-19T02:25:56;26.60;61.10
36652;DHT22;53334;51.976;20.144;2022-08-19T02:28:30;26.60;61.20
36652;DHT22;53334;51.976;20.144;2022-08-19T02:31:09;26.60;61.20
36652;DHT22;53334;51.976;20.144;2022-08-19T02:33:44;26.60;61.20
36652;DHT22;53334;51.976;20.144;2022-08-19T02:36:18;26.60;61.20
36652;DHT22;53334;51.976;20.144;2022-08-19T02:38:53;26.60;61.30
36652;DHT22;53334;51.976;20.144;2022-08-19T02:41:31;26.60;61.30
36652;DHT22;53334;51.976;20.144;2022-08-19T02:44:06;26.60;61.30
36652;DHT22;53334;51.976;20.144;2022-08-19T02:46:59;26.60;61.40
36652;DHT22;53334;51.976;20.144;2022-08-19T02:49:33;26.60;61.30
36652;DHT22;53334;51.976;20.144;2022-08-19T02:52:08;26.60;61.30
36652;DHT22;53334;51.976;20.144;2022-08-19T02:54:43;26.60;61.30
36652;DHT22;53334;51.976;20.144;2022-08-19T02:57:19;26.60;61.30
36652;DHT22;53334;51.976;20.144;2022-08-19T02:59:53;26.60;61.30
36652;DHT22;53334;51.976;20.144;2022-08-19T03:02:27;26.60;61.20
36652;DHT22;53334;51.976;20.144;2022-08-19T03:05:03;26.60;61.30
36652;DHT22;53334;51.976;20.144;2022-08-19T03:07:37;26.60;61.30
36652;DHT22;53334;51.976;20.144;2022-08-19T03:10:12;26.60;61.30
36652;DHT22;53334;51.976;20.144;2022-08-19T03:12:47;26.60;61.20
36652;DHT22;53334;51.976;20.144;2022-08-19T03:15:21;26.60;61.30
36652;DHT22;53334;51.976;20.144;2022-08-19T03:17:55;26.60;61.30
36652;DHT22;53334;51.976;20.144;2022-08-19T03:20:29;26.60;61.30
36652;DHT22;53334;51.976;20.144;2022-08-19T03:23:03;26.60;61.30
36652;DHT22;53334;51.976;20.144;2022-08-19T03:25:38;26.60;61.30
36652;DHT22;53334;51.976;20.144;2022-08-19T03:28:17;26.60;61.30
36652;DHT22;53334;51.976;20.144;2022-08-19T03:30:56;26.60;61.30
36652;DHT22;53334;51.976;20.144;2022-08-19T03:33:33;26.60;61.30
36652;DHT22;53334;51.976;20.144;2022-08-19T03:36:09;26.60;61.40
36652;DHT22;53334;51.976;20.144;2022-08-19T03:38:46;26.60;61.50
36652;DHT22;53334;51.976;20.144;2022-08-19T03:41:31;26.60;61.40
36652;DHT22;53334;51.976;20.144;2022-08-19T03:44:21;26.60;61.30
36652;DHT22;53334;51.976;20.144;2022-08-19T03:46:57;26.60;61.30
36652;DHT22;53334;51.976;20.144;2022-08-19T03:49:32;26.60;61.40
36652;DHT22;53334;51.976;20.144;2022-08-19T03:52:08;26.60;61.40
36652;DHT22;53334;51.976;20.144;2022-08-19T03:54:42;26.60;61.30
36652;DHT22;53334;51.976;20.144;2022-08-19T03:57:17;26.60;61.30
36652;DHT22;53334;51.976;20.144;2022-08-19T03:59:52;26.60;61.30
36652;DHT22;53334;51.976;20.144;2022-08-19T04:02:36;26.60;61.20
36652;DHT22;53334;51.976;20.144;2022-08-19T04:05:10;26.60;61.20
36652;DHT22;53334;51.976;20.144;2022-08-19T04:07:45;26.60;61.20
36652;DHT22;53334;51.976;20.144;2022-08-19T04:10:21;26.60;61.20
36652;DHT22;53334;51.976;20.144;2022-08-19T04:12:56;26.60;61.20
36652;DHT22;53334;51.976;20.144;2022-08-19T04:15:32;26.60;61.20
36652;DHT22;53334;51.976;20.144;2022-08-19T04:18:12;26.60;61.20
36652;DHT22;53334;51.976;20.144;2022-08-19T04:20:47;26.60;61.10
36652;DHT22;53334;51.976;20.144;2022-08-19T04:23:22;26.60;61.20
36652;DHT22;53334;51.976;20.144;2022-08-19T04:25:56;26.60;61.20
36652;DHT22;53334;51.976;20.144;2022-08-19T04:28:30;26.60;61.20
36652;DHT22;53334;51.976;20.144;2022-08-19T04:31:06;26.60;61.20
36652;DHT22;53334;51.976;20.144;2022-08-19T04:33:46;26.60;61.20
36652;DHT22;53334;51.976;20.144;2022-08-19T04:36:22;26.60;61.10
36652;DHT22;53334;51.976;20.144;2022-08-19T04:38:58;26.60;61.20
36652;DHT22;53334;51.976;20.144;2022-08-19T04:41:33;26.60;61.20
36652;DHT22;53334;51.976;20.144;2022-08-19T04:44:25;26.60;61.70
36652;DHT22;53334;51.976;20.144;2022-08-19T04:47:06;26.60;61.20
36652;DHT22;53334;51.976;20.144;2022-08-19T04:49:42;26.60;61.10
36652;DHT22;53334;51.976;20.144;2022-08-19T04:52:16;26.60;61.10
36652;DHT22;53334;51.976;20.144;2022-08-19T04:54:50;26.60;61.20
36652;DHT22;53334;51.976;20.144;2022-08-19T04:57:24;26.60;61.20
36652;DHT22;53334;51.976;20.144;2022-08-19T04:59:58;26.60;61.20
36652;DHT22;53334;51.976;20.144;2022-08-19T05:02:34;26.60;61.20
36652;DHT22;53334;51.976;20.144;2022-08-19T05:05:08;26.60;61.20
36652;DHT22;53334;51.976;20.144;2022-08-19T05:07:42;26.60;61.20
36652;DHT22;53334;51.976;20.144;2022-08-19T05:10:16;26.60;61.20
36652;DHT22;53334;51.976;20.144;2022-08-19T05:12:51;26.60;61.20
36652;DHT22;53334;51.976;20.144;2022-08-19T05:15:25;26.60;61.20
36652;DHT22;53334;51.976;20.144;2022-08-19T05:18:01;26.60;61.20
36652;DHT22;53334;51.976;20.144;2022-08-19T05:20:48;26.60;61.30
36652;DHT22;53334;51.976;20.144;2022-08-19T05:23:40;26.60;61.30
36652;DHT22;53334;51.976;20.144;2022-08-19T05:26:14;26.60;61.40
36652;DHT22;53334;51.976;20.144;2022-08-19T05:28:48;26.60;61.40
36652;DHT22;53334;51.976;20.144;2022-08-19T05:31:26;26.60;61.50
36652;DHT22;53334;51.976;20.144;2022-08-19T05:34:01;26.60;61.40
36652;DHT22;53334;51.976;20.144;2022-08-19T05:36:50;26.60;61.30
36652;DHT22;53334;51.976;20.144;2022-08-19T05:39:32;26.70;61.40
36652;DHT22;53334;51.976;20.144;2022-08-19T05:42:08;26.70;61.60
36652;DHT22;53334;51.976;20.144;2022-08-19T05:44:43;26.70;61.70
36652;DHT22;53334;51.976;20.144;2022-08-19T05:47:18;26.70;61.80
36652;DHT22;53334;51.976;20.144;2022-08-19T05:49:54;26.70;62.00
36652;DHT22;53334;51.976;20.144;2022-08-19T05:52:28;26.70;62.20
36652;DHT22;53334;51.976;20.144;2022-08-19T05:55:03;26.70;62.40
36652;DHT22;53334;51.976;20.144;2022-08-19T05:57:37;26.70;62.60
36652;DHT22;53334;51.976;20.144;2022-08-19T06:00:12;26.70;62.60
36652;DHT22;53334;51.976;20.144;2022-08-19T06:02:46;26.70;62.60
36652;DHT22;53334;51.976;20.144;2022-08-19T06:05:22;26.80;63.00
36652;DHT22;53334;51.976;20.144;2022-08-19T06:07:57;26.80;62.90
36652;DHT22;53334;51.976;20.144;2022-08-19T06:10:34;26.80;63.00
36652;DHT22;53334;51.976;20.144;2022-08-19T06:13:09;26.80;63.00
36652;DHT22;53334;51.976;20.144;2022-08-19T06:15:43;26.80;62.80
36652;DHT22;53334;51.976;20.144;2022-08-19T06:18:18;26.80;62.70
36652;DHT22;53334;51.976;20.144;2022-08-19T06:20:54;26.80;62.30
36652;DHT22;53334;51.976;20.144;2022-08-19T06:23:28;26.80;62.10
36652;DHT22;53334;51.976;20.144;2022-08-19T06:26:02;26.80;61.20
36652;DHT22;53334;51.976;20.144;2022-08-19T06:28:36;26.80;60.90
36652;DHT22;53334;51.976;20.144;2022-08-19T06:31:21;26.80;60.70
36652;DHT22;53334;51.976;20.144;2022-08-19T06:33:55;26.80;60.90
36652;DHT22;53334;51.976;20.144;2022-08-19T06:36:33;26.80;61.00
36652;DHT22;53334;51.976;20.144;2022-08-19T06:39:14;26.80;60.80
36652;DHT22;53334;51.976;20.144;2022-08-19T06:41:50;26.80;61.00
36652;DHT22;53334;51.976;20.144;2022-08-19T06:44:30;26.90;61.00
36652;DHT22;53334;51.976;20.144;2022-08-19T06:47:17;26.80;61.10
36652;DHT22;53334;51.976;20.144;2022-08-19T06:49:57;26.90;61.40
36652;DHT22;53334;51.976;20.144;2022-08-19T06:52:38;26.90;62.40
36652;DHT22;53334;51.976;20.144;2022-08-19T06:55:12;26.90;61.80
36652;DHT22;53334;51.976;20.144;2022-08-19T06:57:46;26.90;61.60
36652;DHT22;53334;51.976;20.144;2022-08-19T07:00:20;27.00;61.30
36652;DHT22;53334;51.976;20.144;2022-08-19T07:02:54;26.90;60.40
36652;DHT22;53334;51.976;20.144;2022-08-19T07:05:39;27.00;60.70
36652;DHT22;53334;51.976;20.144;2022-08-19T07:08:18;27.00;61.10
36652;DHT22;53334;51.976;20.144;2022-08-19T07:10:53;27.00;60.30
36652;DHT22;53334;51.976;20.144;2022-08-19T07:13:27;27.00;59.50
36652;DHT22;53334;51.976;20.144;2022-08-19T07:16:03;27.00;58.90
36652;DHT22;53334;51.976;20.144;2022-08-19T07:18:38;27.00;58.70
36652;DHT22;53334;51.976;20.144;2022-08-19T07:21:18;27.00;58.20
36652;DHT22;53334;51.976;20.144;2022-08-19T07:23:56;27.00;57.80
36652;DHT22;53334;51.976;20.144;2022-08-19T07:26:39;27.00;57.20
36652;DHT22;53334;51.976;20.144;2022-08-19T07:29:13;27.00;56.90
36652;DHT22;53334;51.976;20.144;2022-08-19T07:31:50;27.00;56.70
36652;DHT22;53334;51.976;20.144;2022-08-19T07:34:27;27.00;56.50
36652;DHT22;53334;51.976;20.144;2022-08-19T07:37:01;27.00;56.30
36652;DHT22;53334;51.976;20.144;2022-08-19T07:39:38;27.00;56.00
36652;DHT22;53334;51.976;20.144;2022-08-19T07:42:12;27.00;56.00
36652;DHT22;53334;51.976;20.144;2022-08-19T07:44:47;27.00;56.10
36652;DHT22;53334;51.976;20.144;2022-08-19T07:47:22;27.00;56.20
36652;DHT22;53334;51.976;20.144;2022-08-19T07:50:18;27.00;56.20
36652;DHT22;53334;51.976;20.144;2022-08-19T07:52:52;27.00;56.30
36652;DHT22;53334;51.976;20.144;2022-08-19T07:55:27;27.10;57.20
36652;DHT22;53334;51.976;20.144;2022-08-19T07:58:16;27.10;57.20
36652;DHT22;53334;51.976;20.144;2022-08-19T08:00:51;27.10;57.00
36652;DHT22;53334;51.976;20.144;2022-08-19T08:03:26;27.10;57.00
36652;DHT22;53334;51.976;20.144;2022-08-19T08:06:15;27.10;57.00
36652;DHT22;53334;51.976;20.144;2022-08-19T08:09:07;27.10;57.00
36652;DHT22;53334;51.976;20.144;2022-08-19T08:11:51;27.10;56.90
36652;DHT22;53334;51.976;20.144;2022-08-19T08:14:27;27.10;56.80
36652;DHT22;53334;51.976;20.144;2022-08-19T08:17:08;27.10;56.40
36652;DHT22;53334;51.976;20.144;2022-08-19T08:19:42;27.10;55.40
36652;DHT22;53334;51.976;20.144;2022-08-19T08:22:19;27.10;53.90
36652;DHT22;53334;51.976;20.144;2022-08-19T08:25:10;27.00;52.80
36652;DHT22;53334;51.976;20.144;2022-08-19T08:27:47;27.00;51.80
36652;DHT22;53334;51.976;20.144;2022-08-19T08:30:27;27.00;50.80
36652;DHT22;53334;51.976;20.144;2022-08-19T08:33:04;26.90;50.20
36652;DHT22;53334;51.976;20.144;2022-08-19T08:35:40;26.90;49.40
36652;DHT22;53334;51.976;20.144;2022-08-19T08:38:15;26.90;48.90
36652;DHT22;53334;51.976;20.144;2022-08-19T08:40:53;26.90;48.40
36652;DHT22;53334;51.976;20.144;2022-08-19T08:43:39;26.80;48.10
36652;DHT22;53334;51.976;20.144;2022-08-19T08:46:22;26.80;47.80
36652;DHT22;53334;51.976;20.144;2022-08-19T08:49:10;26.80;47.40
36652;DHT22;53334;51.976;20.144;2022-08-19T08:51:48;26.70;47.60
36652;DHT22;53334;51.976;20.144;2022-08-19T08:54:36;26.70;46.90
36652;DHT22;53334;51.976;20.144;2022-08-19T08:57:14;26.70;47.40
36652;DHT22;53334;51.976;20.144;2022-08-19T08:59:51;26.60;47.00
36652;DHT22;53334;51.976;20.144;2022-08-19T09:02:27;26.60;47.00
36652;DHT22;53334;51.976;20.144;2022-08-19T09:05:01;26.60;47.00
36652;DHT22;53334;51.976;20.144;2022-08-19T09:07:41;26.60;46.90
36652;DHT22;53334;51.976;20.144;2022-08-19T09:10:28;26.60;46.70
36652;DHT22;53334;51.976;20.144;2022-08-19T09:13:11;26.60;46.50
36652;DHT22;53334;51.976;20.144;2022-08-19T09:15:54;26.50;46.20
36652;DHT22;53334;51.976;20.144;2022-08-19T09:18:39;26.50;46.00
36652;DHT22;53334;51.976;20.144;2022-08-19T09:21:15;26.50;45.40
36652;DHT22;53334;51.976;20.144;2022-08-19T09:23:49;26.40;45.50
36652;DHT22;53334;51.976;20.144;2022-08-19T09:26:24;26.40;45.20
36652;DHT22;53334;51.976;20.144;2022-08-19T09:29:19;26.30;44.90
36652;DHT22;53334;51.976;20.144;2022-08-19T09:31:55;26.30;45.00
36652;DHT22;53334;51.976;20.144;2022-08-19T09:34:29;26.20;44.90
36652;DHT22;53334;51.976;20.144;2022-08-19T09:37:09;26.20;45.00
36652;DHT22;53334;51.976;20.144;2022-08-19T09:39:46;26.20;44.80
36652;DHT22;53334;51.976;20.144;2022-08-19T09:42:20;26.20;45.10
36652;DHT22;53334;51.976;20.144;2022-08-19T09:45:07;26.20;44.70
36652;DHT22;53334;51.976;20.144;2022-08-19T09:47:43;26.10;44.60
36652;DHT22;53334;51.976;20.144;2022-08-19T09:50:18;26.10;44.60
36652;DHT22;53334;51.976;20.144;2022-08-19T09:52:53;26.10;44.40
36652;DHT22;53334;51.976;20.144;2022-08-19T09:55:29;26.10;44.50
36652;DHT22;53334;51.976;20.144;2022-08-19T09:58:04;26.10;44.60
36652;DHT22;53334;51.976;20.144;2022-08-19T10:00:38;26.10;44.50
36652;DHT22;53334;51.976;20.144;2022-08-19T10:03:14;26.10;45.00
36652;DHT22;53334;51.976;20.144;2022-08-19T10:05:49;26.10;44.10
36652;DHT22;53334;51.976;20.144;2022-08-19T10:08:28;26.00;44.50
36652;DHT22;53334;51.976;20.144;2022-08-19T10:11:03;26.00;44.40
36652;DHT22;53334;51.976;20.144;2022-08-19T10:13:58;26.00;44.10
36652;DHT22;53334;51.976;20.144;2022-08-19T10:16:33;26.00;44.10
36652;DHT22;53334;51.976;20.144;2022-08-19T10:19:12;26.00;44.00
36652;DHT22;53334;51.976;20.144;2022-08-19T10:21:57;25.90;43.90
36652;DHT22;53334;51.976;20.144;2022-08-19T10:24:32;25.90;43.80
36652;DHT22;53334;51.976;20.144;2022-08-19T10:27:06;25.90;43.80
36652;DHT22;53334;51.976;20.144;2022-08-19T10:29:42;25.90;43.70
36652;DHT22;53334;51.976;20.144;2022-08-19T10:32:18;25.90;43.90
36652;DHT22;53334;51.976;20.144;2022-08-19T10:35:07;25.90;44.30
36652;DHT22;53334;51.976;20.144;2022-08-19T10:37:41;25.90;43.90
36652;DHT22;53334;51.976;20.144;2022-08-19T10:40:31;25.90;43.90
36652;DHT22;53334;51.976;20.144;2022-08-19T10:43:05;25.90;44.00
36652;DHT22;53334;51.976;20.144;2022-08-19T10:45:39;25.90;43.80
36652;DHT22;53334;51.976;20.144;2022-08-19T10:48:24;25.90;43.90
36652;DHT22;53334;51.976;20.144;2022-08-19T10:51:00;25.80;43.80
36652;DHT22;53334;51.976;20.144;2022-08-19T10:53:54;25.80;43.60
36652;DHT22;53334;51.976;20.144;2022-08-19T10:56:29;25.80;43.40
36652;DHT22;53334;51.976;20.144;2022-08-19T10:59:24;25.80;43.40
36652;DHT22;53334;51.976;20.144;2022-08-19T11:02:08;25.80;43.30
36652;DHT22;53334;51.976;20.144;2022-08-19T11:04:43;25.80;43.60
36652;DHT22;53334;51.976;20.144;2022-08-19T11:07:19;25.80;43.70
36652;DHT22;53334;51.976;20.144;2022-08-19T11:09:53;25.80;44.60
36652;DHT22;53334;51.976;20.144;2022-08-19T11:12:27;25.80;44.40
36652;DHT22;53334;51.976;20.144;2022-08-19T11:15:01;25.80;44.60
36652;DHT22;53334;51.976;20.144;2022-08-19T11:17:35;25.80;44.60
36652;DHT22;53334;51.976;20.144;2022-08-19T11:20:14;25.90;45.00
36652;DHT22;53334;51.976;20.144;2022-08-19T11:22:51;25.90;45.40
36652;DHT22;53334;51.976;20.144;2022-08-19T11:25:25;26.00;45.70
36652;DHT22;53334;51.976;20.144;2022-08-19T11:28:00;26.00;46.20
36652;DHT22;53334;51.976;20.144;2022-08-19T11:30:34;26.10;47.00
36652;DHT22;53334;51.976;20.144;2022-08-19T11:33:08;26.10;47.20
36652;DHT22;53334;51.976;20.144;2022-08-19T11:35:43;26.20;47.70
36652;DHT22;53334;51.976;20.144;2022-08-19T11:38:18;26.20;47.80
36652;DHT22;53334;51.976;20.144;2022-08-19T11:40:57;26.30;48.10
36652;DHT22;53334;51.976;20.144;2022-08-19T11:43:31;26.30;47.80
36652;DHT22;53334;51.976;20.144;2022-08-19T11:46:11;26.30;47.80
36652;DHT22;53334;51.976;20.144;2022-08-19T11:48:46;26.40;47.80
36652;DHT22;53334;51.976;20.144;2022-08-19T11:51:22;26.40;47.90
36652;DHT22;53334;51.976;20.144;2022-08-19T11:53:59;26.50;48.10
36652;DHT22;53334;51.976;20.144;2022-08-19T11:56:34;26.50;48.30
36652;DHT22;53334;51.976;20.144;2022-08-19T11:59:08;26.50;48.60
36652;DHT22;53334;51.976;20.144;2022-08-19T12:01:46;26.60;48.90
36652;DHT22;53334;51.976;20.144;2022-08-19T12:04:20;26.60;48.60
36652;DHT22;53334;51.976;20.144;2022-08-19T12:06:54;26.60;48.20
36652;DHT22;53334;51.976;20.144;2022-08-19T12:09:29;26.60;47.70
36652;DHT22;53334;51.976;20.144;2022-08-19T12:12:07;26.60;47.30
36652;DHT22;53334;51.976;20.144;2022-08-19T12:14:41;26.60;47.10
36652;DHT22;53334;51.976;20.144;2022-08-19T12:17:15;26.60;47.40
36652;DHT22;53334;51.976;20.144;2022-08-19T12:19:49;26.60;47.80
36652;DHT22;53334;51.976;20.144;2022-08-19T12:22:23;26.60;47.90
36652;DHT22;53334;51.976;20.144;2022-08-19T12:24:58;26.60;47.20
36652;DHT22;53334;51.976;20.144;2022-08-19T12:27:33;26.60;47.40
36652;DHT22;53334;51.976;20.144;2022-08-19T12:30:13;26.60;47.40
36652;DHT22;53334;51.976;20.144;2022-08-19T12:32:47;26.60;47.30
36652;DHT22;53334;51.976;20.144;2022-08-19T12:35:23;26.60;47.40
36652;DHT22;53334;51.976;20.144;2022-08-19T12:37:57;26.60;47.00
36652;DHT22;53334;51.976;20.144;2022-08-19T12:40:33;26.60;46.70
36652;DHT22;53334;51.976;20.144;2022-08-19T12:43:08;26.60;46.50
36652;DHT22;53334;51.976;20.144;2022-08-19T12:45:45;26.60;46.30
36652;DHT22;53334;51.976;20.144;2022-08-19T12:48:19;26.60;45.90
36652;DHT22;53334;51.976;20.144;2022-08-19T12:51:07;26.50;45.50
36652;DHT22;53334;51.976;20.144;2022-08-19T12:53:41;26.50;45.00
36652;DHT22;53334;51.976;20.144;2022-08-19T12:56:17;26.50;45.10
36652;DHT22;53334;51.976;20.144;2022-08-19T12:58:55;26.50;44.90
36652;DHT22;53334;51.976;20.144;2022-08-19T13:01:29;26.50;45.10
36652;DHT22;53334;51.976;20.144;2022-08-19T13:04:05;26.50;45.10
36652;DHT22;53334;51.976;20.144;2022-08-19T13:06:39;26.50;45.30
36652;DHT22;53334;51.976;20.144;2022-08-19T13:09:13;26.40;45.00
36652;DHT22;53334;51.976;20.144;2022-08-19T13:11:49;26.40;44.80
36652;DHT22;53334;51.976;20.144;2022-08-19T13:14:23;26.40;44.80
36652;DHT22;53334;51.976;20.144;2022-08-19T13:16:58;26.30;44.70
36652;DHT22;53334;51.976;20.144;2022-08-19T13:19:32;26.30;44.70
36652;DHT22;53334;51.976;20.144;2022-08-19T13:22:06;26.30;44.00
36652;DHT22;53334;51.976;20.144;2022-08-19T13:24:46;26.30;44.00
36652;DHT22;53334;51.976;20.144;2022-08-19T13:27:22;26.30;43.80
36652;DHT22;53334;51.976;20.144;2022-08-19T13:29:56;26.30;44.00
36652;DHT22;53334;51.976;20.144;2022-08-19T13:32:47;26.30;44.00
36652;DHT22;53334;51.976;20.144;2022-08-19T13:35:35;26.30;44.30
36652;DHT22;53334;51.976;20.144;2022-08-19T13:38:09;26.30;44.70
36652;DHT22;53334;51.976;20.144;2022-08-19T13:40:44;26.30;45.10
36652;DHT22;53334;51.976;20.144;2022-08-19T13:43:23;26.30;45.80
36652;DHT22;53334;51.976;20.144;2022-08-19T13:45:57;26.30;46.30
36652;DHT22;53334;51.976;20.144;2022-08-19T13:48:31;26.30;46.70
36652;DHT22;53334;51.976;20.144;2022-08-19T13:51:06;26.20;46.60
36652;DHT22;53334;51.976;20.144;2022-08-19T13:53:42;26.20;45.70
36652;DHT22;53334;51.976;20.144;2022-08-19T13:56:19;26.20;45.10
36652;DHT22;53334;51.976;20.144;2022-08-19T13:58:59;26.20;44.90
36652;DHT22;53334;51.976;20.144;2022-08-19T14:01:33;26.10;44.80
36652;DHT22;53334;51.976;20.144;2022-08-19T14:04:07;26.10;44.60
36652;DHT22;53334;51.976;20.144;2022-08-19T14:06:41;26.10;44.70
36652;DHT22;53334;51.976;20.144;2022-08-19T14:09:15;26.00;44.70
36652;DHT22;53334;51.976;20.144;2022-08-19T14:11:49;26.00;44.50
36652;DHT22;53334;51.976;20.144;2022-08-19T14:14:25;25.90;44.50
36652;DHT22;53334;51.976;20.144;2022-08-19T14:16:59;25.90;44.50
36652;DHT22;53334;51.976;20.144;2022-08-19T14:19:33;25.90;44.50
36652;DHT22;53334;51.976;20.144;2022-08-19T14:22:12;25.80;44.60
36652;DHT22;53334;51.976;20.144;2022-08-19T14:24:53;25.80;44.60
36652;DHT22;53334;51.976;20.144;2022-08-19T14:27:27;25.70;44.80
36652;DHT22;53334;51.976;20.144;2022-08-19T14:30:04;25.70;45.00
36652;DHT22;53334;51.976;20.144;2022-08-19T14:32:39;25.50;45.30
36652;DHT22;53334;51.976;20.144;2022-08-19T14:35:16;25.30;45.40
36652;DHT22;53334;51.976;20.144;2022-08-19T14:37:51;25.10;45.20
36652;DHT22;53334;51.976;20.144;2022-08-19T14:40:29;25.00;45.10
36652;DHT22;53334;51.976;20.144;2022-08-19T14:43:04;24.90;44.80
36652;DHT22;53334;51.976;20.144;2022-08-19T14:45:39;24.80;44.50
36652;DHT22;53334;51.976;20.144;2022-08-19T14:48:15;24.70;44.40
36652;DHT22;53334;51.976;20.144;2022-08-19T14:50:51;24.60;44.20
36652;DHT22;53334;51.976;20.144;2022-08-19T14:53:25;24.50;44.20
36652;DHT22;53334;51.976;20.144;2022-08-19T14:56:00;24.40;44.20
36652;DHT22;53334;51.976;20.144;2022-08-19T14:58:34;24.40;44.00
36652;DHT22;53334;51.976;20.144;2022-08-19T15:01:12;24.40;43.70
36652;DHT22;53334;51.976;20.144;2022-08-19T15:03:47;24.30;43.50
36652;DHT22;53334;51.976;20.144;2022-08-19T15:06:22;24.20;43.30
36652;DHT22;53334;51.976;20.144;2022-08-19T15:08:56;24.10;43.60
36652;DHT22;53334;51.976;20.144;2022-08-19T15:11:35;24.10;42.80
36652;DHT22;53334;51.976;20.144;2022-08-19T15:14:10;24.00;42.60
36652;DHT22;53334;51.976;20.144;2022-08-19T15:16:47;24.00;42.40
36652;DHT22;53334;51.976;20.144;2022-08-19T15:19:21;24.00;42.20
36652;DHT22;53334;51.976;20.144;2022-08-19T15:21:56;23.90;42.50
36652;DHT22;53334;51.976;20.144;2022-08-19T15:24:30;23.90;43.00
36652;DHT22;53334;51.976;20.144;2022-08-19T15:27:06;23.80;43.40
36652;DHT22;53334;51.976;20.144;2022-08-19T15:29:40;23.80;43.70
36652;DHT22;53334;51.976;20.144;2022-08-19T15:32:15;23.70;44.10
36652;DHT22;53334;51.976;20.144;2022-08-19T15:34:51;23.70;44.30
36652;DHT22;53334;51.976;20.144;2022-08-19T15:37:25;23.70;44.50
36652;DHT22;53334;51.976;20.144;2022-08-19T15:39:59;23.60;44.70
36652;DHT22;53334;51.976;20.144;2022-08-19T15:42:35;23.60;44.90
36652;DHT22;53334;51.976;20.144;2022-08-19T15:45:10;23.60;45.80
36652;DHT22;53334;51.976;20.144;2022-08-19T15:47:46;23.60;45.80
36652;DHT22;53334;51.976;20.144;2022-08-19T15:50:21;23.70;46.20
36652;DHT22;53334;51.976;20.144;2022-08-19T15:52:57;23.80;46.40
36652;DHT22;53334;51.976;20.144;2022-08-19T15:55:33;23.80;46.50
36652;DHT22;53334;51.976;20.144;2022-08-19T15:58:11;23.90;46.50
36652;DHT22;53334;51.976;20.144;2022-08-19T16:01:04;24.00;46.70
36652;DHT22;53334;51.976;20.144;2022-08-19T16:04:00;24.00;47.40
36652;DHT22;53334;51.976;20.144;2022-08-19T16:06:53;24.20;47.80
36652;DHT22;53334;51.976;20.144;2022-08-19T16:09:29;24.30;48.10
36652;DHT22;53334;51.976;20.144;2022-08-19T16:12:04;24.40;48.10
36652;DHT22;53334;51.976;20.144;2022-08-19T16:14:40;24.40;47.90